Time;durP1;ratioP1;P1;durP2;ratioP2;P2;SDS_P1;SDS_P2;PMS_P1;PMS_P2;Temp;Humidity;BMP_temperature;BMP_pressure;BME280_temperature;BME280_humidity;BME280_pressure;Samples;Min_cycle;Max_cycle;Signal;HPM_P1;HPM_P2
2022/01/01 00:00:33;;;;;;;0.80;0.80;;;19.50;63.00;;;;;;5053485;28;20495;-67
2022/01/01 00:03:00;;;;;;;0.70;0.70;;;19.50;63.00;;;;;;5053586;28;20033;-67
2022/01/01 00:05:26;;;;;;;0.70;0.70;;;19.50;63.10;;;;;;5053313;28;20033;-67
2022/01/01 00:07:52;;;;;;;0.80;0.75;;;19.50;63.00;;;;;;5035684;28;20525;-67
2022/01/01 00:10:19;;;;;;;0.60;0.60;;;19.50;63.00;;;;;;5051435;28;20037;-67
2022/01/01 00:12:46;;;;;;;0.65;0.65;;;19.50;63.00;;;;;;5051958;28;20479;-67
2022/01/01 00:15:12;;;;;;;0.80;0.80;;;19.50;63.10;;;;;;5052094;28;20029;-67
2022/01/01 00:17:38;;;;;;;0.70;0.70;;;19.50;63.00;;;;;;5052091;28;20020;-67
2022/01/01 00:20:04;;;;;;;0.80;0.80;;;19.50;63.00;;;;;;5053235;28;20107;-67
2022/01/01 00:22:30;;;;;;;0.70;0.70;;;19.50;63.00;;;;;;5035624;28;20021;-67
2022/01/01 00:24:55;;;;;;;0.70;0.70;;;19.50;63.00;;;;;;5052896;28;20465;-67
2022/01/01 00:27:21;;;;;;;0.70;0.70;;;19.50;63.00;;;;;;5032904;28;20021;-67
2022/01/01 00:29:46;;;;;;;0.70;0.70;;;19.50;63.00;;;;;;5033132;28;20029;-67
2022/01/01 00:32:12;;;;;;;0.85;0.85;;;19.50;63.00;;;;;;5031872;28;20029;-67
2022/01/01 00:34:38;;;;;;;0.73;0.73;;;19.40;63.00;;;;;;5032950;28;20025;-67
2022/01/01 00:37:04;;;;;;;0.88;0.70;;;19.50;63.00;;;;;;5032814;28;20068;-67
2022/01/01 00:39:29;;;;;;;0.80;0.80;;;19.50;63.00;;;;;;5031895;28;20029;-67
2022/01/01 00:41:55;;;;;;;0.80;0.80;;;19.50;63.00;;;;;;5032648;28;20032;-67
2022/01/01 00:44:20;;;;;;;0.82;0.82;;;19.50;63.00;;;;;;5033017;28;20075;-67
2022/01/01 00:46:46;;;;;;;0.70;0.70;;;19.50;63.00;;;;;;5032556;28;20029;-67
2022/01/01 00:49:12;;;;;;;0.63;0.63;;;19.40;63.00;;;;;;5032829;28;20059;-67
2022/01/01 00:51:37;;;;;;;0.68;0.68;;;19.40;63.00;;;;;;5052626;28;20368;-67
2022/01/01 00:54:03;;;;;;;0.70;0.70;;;19.40;62.90;;;;;;5052595;28;20039;-67
2022/01/01 00:56:28;;;;;;;0.70;0.70;;;19.40;62.90;;;;;;5051189;28;20060;-67
2022/01/01 00:58:54;;;;;;;0.50;0.50;;;19.40;63.00;;;;;;5052304;28;20047;-67
2022/01/01 01:01:20;;;;;;;1.05;0.70;;;19.40;62.90;;;;;;5052619;28;20025;-67
2022/01/01 01:03:45;;;;;;;0.70;0.70;;;19.40;62.90;;;;;;5051211;28;20032;-67
2022/01/01 01:06:12;;;;;;;0.60;0.60;;;19.40;62.90;;;;;;5052369;28;20035;-67
2022/01/01 01:08:38;;;;;;;0.90;0.90;;;19.40;62.90;;;;;;5051267;28;20139;-67
2022/01/01 01:11:07;;;;;;;0.60;0.60;;;19.40;63.00;;;;;;5051930;28;20124;-67
2022/01/01 01:13:33;;;;;;;0.50;0.50;;;19.40;62.90;;;;;;5051352;28;20074;-67
2022/01/01 01:15:59;;;;;;;0.50;0.50;;;19.40;62.90;;;;;;5052241;28;20100;-67
2022/01/01 01:18:24;;;;;;;0.60;0.60;;;19.40;63.90;;;;;;5052131;28;20029;-67
2022/01/01 01:20:50;;;;;;;0.80;0.63;;;19.40;62.90;;;;;;5051898;28;20031;-67
2022/01/01 01:23:16;;;;;;;1.17;1.00;;;19.40;62.90;;;;;;5051030;28;20036;-67
2022/01/01 01:25:41;;;;;;;0.90;0.75;;;19.40;62.90;;;;;;5044356;28;20432;-67
2022/01/01 01:28:13;;;;;;;0.60;0.60;;;19.40;62.90;;;;;;5031259;28;20022;-67
2022/01/01 01:30:39;;;;;;;0.73;0.73;;;19.40;62.90;;;;;;5030888;28;20065;-67
2022/01/01 01:33:05;;;;;;;0.77;0.77;;;19.40;62.90;;;;;;5031319;28;20471;-67
2022/01/01 01:35:31;;;;;;;0.88;0.70;;;19.40;62.90;;;;;;5031100;28;20022;-67
2022/01/01 01:37:57;;;;;;;0.73;0.68;;;19.40;62.80;;;;;;5031694;28;20399;-67
2022/01/01 01:40:22;;;;;;;1.25;0.88;;;19.40;62.80;;;;;;5030957;28;20037;-67
2022/01/01 01:42:48;;;;;;;0.82;0.80;;;19.40;62.80;;;;;;5030879;28;20042;-67
2022/01/01 01:45:18;;;;;;;0.70;0.60;;;19.40;62.80;;;;;;5030825;28;20036;-67
2022/01/01 01:47:44;;;;;;;0.70;0.60;;;19.40;62.80;;;;;;5030799;28;20060;-67
2022/01/01 01:50:11;;;;;;;0.70;0.65;;;19.40;62.90;;;;;;5041380;28;20491;-67
2022/01/01 01:52:37;;;;;;;0.80;0.80;;;19.40;62.80;;;;;;5050393;28;20498;-67
2022/01/01 01:55:08;;;;;;;0.70;0.70;;;19.40;62.80;;;;;;5034413;28;20021;-67
2022/01/01 01:57:41;;;;;;;0.60;0.60;;;19.40;62.80;;;;;;5050658;28;20100;-67
2022/01/01 02:02:49;;;;;;;0.93;0.82;;;19.40;62.80;;;;;;5052036;28;20487;-67
2022/01/01 02:05:15;;;;;;;1.17;0.70;;;19.40;62.80;;;;;;5050631;28;20029;-67
2022/01/01 02:07:41;;;;;;;0.80;0.80;;;19.40;62.90;;;;;;5051648;28;20104;-67
2022/01/01 02:10:07;;;;;;;0.63;0.63;;;19.40;62.90;;;;;;5050921;28;20032;-67
2022/01/01 02:12:33;;;;;;;0.90;0.80;;;19.40;62.80;;;;;;5050430;28;20031;-67
2022/01/01 02:17:25;;;;;;;0.50;0.50;;;19.40;62.80;;;;;;5051775;28;20056;-67
2022/01/01 02:19:54;;;;;;;1.00;0.70;;;19.40;62.80;;;;;;5050571;28;20162;-67
2022/01/01 02:22:20;;;;;;;0.60;0.60;;;19.40;62.80;;;;;;5051476;28;20021;-67
2022/01/01 02:24:45;;;;;;;1.10;0.77;;;19.40;62.90;;;;;;5033741;28;20029;-67
2022/01/01 02:27:11;;;;;;;1.20;1.00;;;19.40;62.80;;;;;;5033203;28;20025;-67
2022/01/01 02:29:37;;;;;;;1.10;0.90;;;19.40;62.80;;;;;;5030764;28;20021;-67
2022/01/01 02:32:07;;;;;;;0.73;0.73;;;19.40;62.80;;;;;;5031490;28;20021;-67
2022/01/01 02:34:32;;;;;;;0.80;0.80;;;19.30;62.70;;;;;;5035224;28;20021;-67
2022/01/01 02:36:58;;;;;;;0.90;0.82;;;19.30;62.80;;;;;;5035005;28;20043;-67
2022/01/01 02:39:23;;;;;;;0.60;0.60;;;19.30;62.70;;;;;;5035427;28;20040;-67
2022/01/01 02:41:51;;;;;;;0.70;0.70;;;19.30;62.70;;;;;;5035170;28;20033;-67
2022/01/01 02:44:17;;;;;;;0.75;0.70;;;19.30;63.70;;;;;;5034075;28;20037;-67
2022/01/01 02:46:42;;;;;;;0.70;0.68;;;19.30;62.70;;;;;;5035077;28;20021;-67
2022/01/01 02:49:08;;;;;;;0.70;0.70;;;19.30;62.70;;;;;;5034524;28;20053;-67
2022/01/01 02:51:34;;;;;;;1.00;0.60;;;19.30;62.70;;;;;;5054749;28;20532;-67
2022/01/01 02:53:59;;;;;;;1.33;0.60;;;19.30;62.70;;;;;;5053650;28;20032;-67
2022/01/01 02:56:25;;;;;;;1.17;0.68;;;19.30;62.70;;;;;;5054974;28;20057;-67
2022/01/01 02:58:51;;;;;;;1.15;0.80;;;19.30;62.70;;;;;;5037034;28;20033;-67
2022/01/01 03:01:17;;;;;;;0.85;0.75;;;19.30;62.70;;;;;;5053625;28;20127;-67
2022/01/01 03:03:43;;;;;;;0.80;0.80;;;19.30;62.70;;;;;;5053438;28;20040;-67
2022/01/01 03:06:09;;;;;;;0.73;0.73;;;19.30;62.70;;;;;;5054328;28;20024;-67
2022/01/01 03:08:35;;;;;;;0.50;0.50;;;19.30;62.70;;;;;;5054631;28;20028;-67
2022/01/01 03:11:02;;;;;;;1.30;0.80;;;19.30;62.70;;;;;;5053343;28;20383;-67
2022/01/01 03:13:31;;;;;;;0.93;0.80;;;19.30;62.70;;;;;;5053518;28;20029;-67
2022/01/01 03:15:57;;;;;;;0.52;0.52;;;19.30;62.70;;;;;;5053255;28;20021;-67
2022/01/01 03:18:23;;;;;;;0.80;0.80;;;19.30;62.60;;;;;;5053221;28;20033;-67
2022/01/01 03:20:48;;;;;;;0.90;0.70;;;19.30;62.70;;;;;;5053030;28;20036;-67
2022/01/01 03:23:14;;;;;;;0.63;0.63;;;19.30;62.70;;;;;;5053040;28;20064;-67
2022/01/01 03:25:39;;;;;;;0.73;0.70;;;19.30;62.60;;;;;;5047261;28;20088;-67
2022/01/01 03:28:05;;;;;;;0.70;0.70;;;19.30;62.70;;;;;;5034239;28;20057;-67
2022/01/01 03:30:31;;;;;;;0.70;0.70;;;19.30;62.70;;;;;;5033302;28;20041;-67
2022/01/01 03:32:57;;;;;;;0.82;0.60;;;19.30;62.70;;;;;;5033940;28;20112;-67
2022/01/01 03:35:23;;;;;;;0.90;0.55;;;19.30;62.60;;;;;;5034021;28;20097;-67
2022/01/01 03:37:48;;;;;;;1.27;0.90;;;19.30;62.60;;;;;;5034072;28;20029;-67
2022/01/01 03:40:14;;;;;;;0.63;0.63;;;19.30;62.60;;;;;;5034186;28;20112;-67
2022/01/01 03:42:40;;;;;;;0.88;0.60;;;19.30;62.60;;;;;;5034021;28;20451;-67
2022/01/01 03:45:07;;;;;;;0.60;0.60;;;19.30;62.60;;;;;;5032648;28;20567;-67
2022/01/01 03:47:33;;;;;;;0.60;0.60;;;19.30;62.60;;;;;;5034019;28;20048;-67
2022/01/01 03:49:59;;;;;;;0.70;0.70;;;19.30;62.60;;;;;;5039964;28;20021;-67
2022/01/01 03:52:24;;;;;;;0.88;0.75;;;19.30;62.60;;;;;;5053816;28;20537;-67
2022/01/01 03:54:50;;;;;;;0.50;0.50;;;19.30;62.60;;;;;;5053788;28;20014;-67
2022/01/01 03:57:16;;;;;;;0.55;0.50;;;19.30;62.60;;;;;;5035972;28;20062;-67
2022/01/01 03:59:42;;;;;;;0.63;0.63;;;19.30;62.60;;;;;;5053701;28;20021;-67
2022/01/01 04:02:07;;;;;;;0.65;0.65;;;19.30;62.60;;;;;;5053482;28;20060;-67
2022/01/01 04:04:33;;;;;;;0.70;0.70;;;19.30;62.50;;;;;;5053179;28;20029;-67
2022/01/01 04:07:00;;;;;;;0.80;0.70;;;19.30;62.60;;;;;;5053521;28;20036;-67
2022/01/01 04:09:25;;;;;;;0.63;0.60;;;19.30;62.60;;;;;;5053431;28;20122;-67
2022/01/01 04:11:51;;;;;;;0.85;0.50;;;19.30;62.60;;;;;;5053563;28;20479;-67
2022/01/01 04:14:17;;;;;;;0.70;0.70;;;19.30;62.60;;;;;;5052273;28;20021;-67
2022/01/01 04:16:42;;;;;;;0.52;0.52;;;19.30;62.50;;;;;;5053327;28;20487;-67
2022/01/01 04:19:08;;;;;;;0.55;0.55;;;19.30;62.50;;;;;;5051690;28;20100;-67
2022/01/01 04:21:34;;;;;;;0.50;0.50;;;19.30;62.50;;;;;;5035581;28;20243;-67
2022/01/01 04:24:00;;;;;;;0.57;0.52;;;19.30;62.50;;;;;;5051998;28;20025;-66
2022/01/01 04:26:26;;;;;;;0.60;0.60;;;19.30;62.50;;;;;;5039589;28;20160;-67
2022/01/01 04:28:51;;;;;;;1.15;0.80;;;19.30;62.50;;;;;;5033232;28;20024;-67
2022/01/01 04:31:17;;;;;;;0.60;0.60;;;19.30;62.50;;;;;;5031815;28;20030;-67
2022/01/01 04:33:43;;;;;;;0.50;0.50;;;19.30;62.50;;;;;;5032675;28;20470;-67
2022/01/01 04:36:09;;;;;;;0.80;0.57;;;19.20;63.40;;;;;;5031886;28;20411;-67
2022/01/01 04:38:40;;;;;;;0.70;0.60;;;19.20;62.40;;;;;;5031879;28;20079;-67
2022/01/01 04:41:09;;;;;;;0.52;0.52;;;19.20;62.40;;;;;;5032877;28;20028;-67
2022/01/01 04:43:35;;;;;;;0.60;0.60;;;19.20;62.40;;;;;;5031840;28;20044;-67
2022/01/01 04:46:00;;;;;;;0.98;0.88;;;19.20;62.40;;;;;;5031664;28;20487;-67
2022/01/01 04:48:26;;;;;;;0.40;0.40;;;19.20;62.40;;;;;;5032434;28;20392;-67
2022/01/01 04:50:52;;;;;;;0.60;0.50;;;19.20;62.40;;;;;;5047859;28;20029;-67
2022/01/01 04:53:18;;;;;;;1.05;0.73;;;19.20;62.40;;;;;;5034914;28;20028;-67
2022/01/01 04:55:48;;;;;;;0.75;0.68;;;19.20;62.40;;;;;;5051156;28;20028;-67
2022/01/01 04:58:14;;;;;;;0.70;0.70;;;19.20;62.40;;;;;;5051139;28;20103;-67
2022/01/01 05:00:39;;;;;;;0.55;0.55;;;19.20;62.40;;;;;;5051444;28;20100;-67
2022/01/01 05:03:05;;;;;;;0.80;0.60;;;19.20;62.30;;;;;;5052094;28;20047;-67
2022/01/01 05:05:30;;;;;;;0.63;0.63;;;19.30;62.40;;;;;;5052937;28;20392;-67
2022/01/01 05:07:56;;;;;;;0.60;0.60;;;19.20;62.30;;;;;;5051157;28;20068;-67
2022/01/01 05:10:24;;;;;;;0.57;0.57;;;19.20;62.40;;;;;;5052323;28;20055;-67
2022/01/01 05:12:50;;;;;;;0.65;0.65;;;19.20;62.40;;;;;;5051409;28;20013;-67
2022/01/01 05:15:16;;;;;;;0.90;0.70;;;19.20;62.40;;;;;;5052315;28;20032;-67
2022/01/01 05:17:42;;;;;;;0.60;0.60;;;19.20;62.30;;;;;;5051984;28;20025;-67
2022/01/01 05:20:08;;;;;;;0.40;0.40;;;19.20;62.30;;;;;;5052354;28;20029;-67
2022/01/01 05:22:33;;;;;;;0.60;0.60;;;19.20;62.30;;;;;;5052174;28;20029;-67
2022/01/01 05:25:00;;;;;;;0.47;0.47;;;19.20;62.30;;;;;;5034094;28;20056;-67
2022/01/01 05:27:31;;;;;;;0.50;0.50;;;19.20;62.30;;;;;;5031012;28;20022;-67
2022/01/01 05:29:57;;;;;;;0.55;0.45;;;19.20;62.20;;;;;;5030782;28;20091;-67
2022/01/01 05:32:22;;;;;;;0.55;0.47;;;19.20;62.20;;;;;;5032225;28;20404;-67
2022/01/01 05:34:48;;;;;;;0.60;0.60;;;19.20;62.30;;;;;;5032334;28;20037;-67
2022/01/01 05:37:14;;;;;;;0.50;0.50;;;19.20;62.30;;;;;;5032063;28;20439;-67
2022/01/01 05:39:39;;;;;;;0.50;0.50;;;19.20;62.20;;;;;;5031137;28;20025;-67
2022/01/01 05:42:05;;;;;;;0.50;0.50;;;19.20;62.30;;;;;;5032093;28;20615;-67
2022/01/01 05:44:31;;;;;;;0.90;0.70;;;19.20;62.20;;;;;;5031765;28;20029;-67
2022/01/01 05:46:56;;;;;;;0.60;0.60;;;19.20;62.20;;;;;;5031106;28;20026;-67
2022/01/01 05:49:22;;;;;;;1.23;0.60;;;19.20;62.20;;;;;;5033363;28;20037;-67
2022/01/01 05:51:48;;;;;;;0.60;0.60;;;19.20;62.20;;;;;;5051021;28;20024;-67
2022/01/01 05:54:13;;;;;;;0.60;0.60;;;19.20;62.30;;;;;;5050612;28;20086;-67
2022/01/01 05:56:39;;;;;;;0.88;0.70;;;19.20;62.20;;;;;;5050770;28;20021;-67
2022/01/01 05:59:05;;;;;;;0.60;0.60;;;19.20;62.30;;;;;;5050410;28;20447;-67
2022/01/01 06:01:30;;;;;;;0.90;0.63;;;19.20;62.20;;;;;;5052104;28;20029;-67
2022/01/01 06:03:56;;;;;;;0.57;0.57;;;19.20;62.20;;;;;;5051725;28;20036;-67
2022/01/01 06:06:22;;;;;;;0.52;0.52;;;19.20;62.20;;;;;;5050491;28;20398;-67
2022/01/01 06:08:47;;;;;;;0.60;0.57;;;19.20;62.20;;;;;;5053517;28;20520;-67
2022/01/01 06:11:13;;;;;;;0.65;0.65;;;19.20;62.20;;;;;;5055768;28;20021;-67
2022/01/01 06:13:39;;;;;;;0.60;0.50;;;19.20;62.20;;;;;;5037657;28;20386;-67
2022/01/01 06:16:05;;;;;;;0.88;0.52;;;19.20;62.20;;;;;;5054492;28;20375;-67
2022/01/01 06:18:30;;;;;;;0.90;0.63;;;19.10;62.10;;;;;;5055636;28;20395;-67
2022/01/01 06:20:56;;;;;;;0.82;0.80;;;19.20;62.10;;;;;;5054454;28;20507;-67
2022/01/01 06:23:22;;;;;;;0.55;0.55;;;19.20;62.20;;;;;;5054163;28;20037;-67
2022/01/01 06:25:47;;;;;;;0.75;0.55;;;19.10;62.10;;;;;;5048165;28;20049;-67
2022/01/01 06:28:13;;;;;;;0.98;0.90;;;19.10;62.10;;;;;;5035190;28;20034;-67
2022/01/01 06:30:39;;;;;;;1.02;0.50;;;19.20;62.10;;;;;;5035536;28;20326;-67
2022/01/01 06:33:11;;;;;;;0.95;0.85;;;19.10;62.10;;;;;;5034077;28;20401;-67
2022/01/01 06:35:41;;;;;;;0.77;0.68;;;19.20;62.10;;;;;;5035590;28;20029;-67
2022/01/01 06:38:06;;;;;;;0.60;0.60;;;19.20;62.10;;;;;;5035365;28;20099;-67
2022/01/01 06:40:32;;;;;;;1.63;0.70;;;19.20;62.10;;;;;;5035244;28;20484;-67
2022/01/01 06:42:57;;;;;;;1.48;0.60;;;19.20;62.10;;;;;;5033705;28;20026;-67
2022/01/01 06:45:23;;;;;;;0.70;0.70;;;19.20;62.10;;;;;;5035498;28;20030;-67
2022/01/01 06:47:49;;;;;;;0.60;0.60;;;19.20;62.10;;;;;;5034095;28;20021;-67
2022/01/01 06:50:14;;;;;;;0.68;0.68;;;19.20;62.10;;;;;;5043701;28;20096;-67
2022/01/01 06:52:44;;;;;;;1.02;0.70;;;19.10;62.10;;;;;;5055013;28;20025;-67
2022/01/01 06:55:10;;;;;;;1.08;0.80;;;19.10;62.00;;;;;;5054953;28;20017;-67
2022/01/01 06:57:36;;;;;;;0.55;0.55;;;19.10;62.00;;;;;;5053261;28;20386;-67
2022/01/01 07:00:02;;;;;;;0.73;0.63;;;19.10;62.00;;;;;;5054934;28;20088;-67
2022/01/01 07:02:28;;;;;;;0.88;0.60;;;19.20;62.10;;;;;;5036990;28;20028;-67
2022/01/01 07:04:53;;;;;;;1.13;0.77;;;19.10;62.00;;;;;;5053477;28;20025;-67
2022/01/01 07:07:19;;;;;;;0.93;0.68;;;19.10;62.00;;;;;;5054597;28;20479;-67
2022/01/01 07:09:45;;;;;;;0.50;0.50;;;19.10;62.00;;;;;;5054721;28;20059;-67
2022/01/01 07:12:10;;;;;;;0.70;0.70;;;19.20;62.00;;;;;;5053396;28;20029;-67
2022/01/01 07:14:36;;;;;;;0.50;0.50;;;19.10;62.00;;;;;;5054541;28;20543;-67
2022/01/01 07:17:02;;;;;;;0.80;0.70;;;19.10;62.00;;;;;;5054698;28;20029;-67
2022/01/01 07:19:27;;;;;;;0.93;0.70;;;19.10;62.00;;;;;;5054228;28;20036;-67
2022/01/01 07:21:55;;;;;;;0.95;0.77;;;19.10;62.00;;;;;;5053226;28;20438;-67
2022/01/01 07:24:21;;;;;;;0.63;0.63;;;19.10;62.00;;;;;;5054332;28;20017;-67
2022/01/01 07:26:48;;;;;;;0.70;0.70;;;19.10;62.00;;;;;;5039138;28;20037;-67
2022/01/01 07:29:13;;;;;;;1.35;0.70;;;19.10;62.00;;;;;;5034294;28;20156;-67
2022/01/01 07:31:39;;;;;;;0.70;0.70;;;19.10;61.90;;;;;;5034622;28;20503;-67
2022/01/01 07:34:05;;;;;;;0.77;0.70;;;19.10;61.90;;;;;;5034639;28;20013;-67
2022/01/01 07:36:30;;;;;;;0.88;0.70;;;19.10;62.00;;;;;;5034147;28;20040;-67
2022/01/01 07:38:56;;;;;;;0.82;0.73;;;19.10;62.00;;;;;;5034412;28;20063;-67
2022/01/01 07:41:21;;;;;;;1.08;0.68;;;19.10;61.90;;;;;;5032860;28;20041;-67
2022/01/01 07:43:47;;;;;;;1.00;0.90;;;19.10;61.90;;;;;;5034145;28;20013;-67
2022/01/01 07:46:12;;;;;;;0.88;0.57;;;19.10;61.90;;;;;;5034027;28;20030;-67
2022/01/01 07:48:38;;;;;;;0.70;0.60;;;19.10;61.90;;;;;;5034323;28;20049;-67
2022/01/01 07:51:04;;;;;;;1.15;0.90;;;19.10;62.00;;;;;;5050843;28;20107;-67
2022/01/01 07:53:29;;;;;;;0.68;0.50;;;19.10;61.90;;;;;;5054226;28;20035;-67
2022/01/01 07:55:55;;;;;;;1.33;0.90;;;19.10;61.90;;;;;;5053697;28;20029;-67
2022/01/01 07:58:20;;;;;;;0.68;0.68;;;19.10;61.90;;;;;;5052360;28;20032;-67
2022/01/01 08:00:46;;;;;;;0.73;0.73;;;19.10;61.90;;;;;;5053858;28;20033;-67
2022/01/01 08:03:12;;;;;;;1.23;0.80;;;19.10;61.90;;;;;;5053634;28;20021;-67
2022/01/01 08:05:38;;;;;;;1.33;0.75;;;19.10;61.90;;;;;;5052475;28;20025;-67
2022/01/01 08:08:04;;;;;;;0.65;0.60;;;19.10;61.90;;;;;;5052562;28;20049;-67
2022/01/01 08:10:30;;;;;;;1.20;0.77;;;19.10;61.90;;;;;;5018811;28;20083;-67
2022/01/01 08:12:56;;;;;;;0.85;0.80;;;19.10;61.90;;;;;;5035850;28;20487;-67
2022/01/01 08:15:23;;;;;;;0.70;0.50;;;19.10;61.90;;;;;;5053589;28;20052;-67
2022/01/01 08:17:48;;;;;;;1.20;0.70;;;19.10;61.90;;;;;;5053370;28;20021;-67
2022/01/01 08:20:14;;;;;;;0.60;0.60;;;19.10;61.90;;;;;;5053416;28;20086;-67
2022/01/01 08:22:40;;;;;;;0.65;0.63;;;19.10;61.90;;;;;;5035488;28;20033;-67
2022/01/01 08:25:06;;;;;;;0.73;0.63;;;19.10;61.90;;;;;;5051658;28;20049;-67
2022/01/01 08:27:31;;;;;;;0.82;0.80;;;19.10;61.90;;;;;;5032288;28;20026;-67
2022/01/01 08:29:57;;;;;;;1.25;0.73;;;19.10;61.90;;;;;;5031570;28;20569;-67
2022/01/01 08:32:22;;;;;;;0.93;0.70;;;19.10;61.80;;;;;;5032913;28;20022;-67
2022/01/01 08:34:48;;;;;;;0.60;0.60;;;19.10;61.80;;;;;;5033344;28;20022;-67
2022/01/01 08:37:14;;;;;;;0.60;0.60;;;19.10;61.80;;;;;;5033174;28;20033;-67
2022/01/01 08:39:39;;;;;;;1.17;0.73;;;19.10;61.90;;;;;;5032782;28;20030;-67
2022/01/01 08:42:05;;;;;;;1.63;0.77;;;19.10;61.80;;;;;;5033232;28;20025;-67
2022/01/01 08:44:31;;;;;;;0.82;0.70;;;19.10;61.80;;;;;;5031777;28;20025;-67
2022/01/01 08:46:57;;;;;;;1.35;0.70;;;19.10;61.80;;;;;;5032921;28;20029;-67
2022/01/01 08:49:23;;;;;;;1.33;0.65;;;19.10;61.80;;;;;;5034444;28;20067;-67
2022/01/01 08:51:48;;;;;;;1.17;0.80;;;19.10;61.80;;;;;;5052776;28;20017;-67
2022/01/01 08:54:14;;;;;;;1.35;0.50;;;19.10;61.80;;;;;;5051398;28;20032;-67
2022/01/01 08:56:41;;;;;;;1.08;0.80;;;19.10;61.80;;;;;;5051589;28;20021;-67
2022/01/01 08:59:06;;;;;;;0.95;0.70;;;19.10;61.80;;;;;;5051408;28;20106;-67
2022/01/01 09:01:32;;;;;;;0.98;0.88;;;19.10;61.80;;;;;;5051492;28;20052;-67
2022/01/01 09:03:58;;;;;;;1.20;0.60;;;19.10;61.70;;;;;;5051391;28;20045;-67
2022/01/01 09:06:23;;;;;;;0.60;0.60;;;19.10;61.70;;;;;;5051273;28;20025;-67
2022/01/01 09:08:49;;;;;;;1.08;0.80;;;19.10;61.70;;;;;;5052495;28;20056;-67
2022/01/01 09:11:15;;;;;;;0.93;0.73;;;19.10;61.80;;;;;;5034936;28;20438;-67
2022/01/01 09:13:43;;;;;;;0.82;0.50;;;19.10;61.80;;;;;;5052490;28;20384;-67
2022/01/01 09:16:14;;;;;;;0.60;0.60;;;19.10;61.70;;;;;;5051440;28;20020;-67
2022/01/01 09:18:40;;;;;;;1.08;0.90;;;19.10;61.80;;;;;;5051397;28;20021;-67
2022/01/01 09:21:06;;;;;;;0.90;0.68;;;19.10;61.80;;;;;;5051278;28;20479;-67
2022/01/01 09:23:32;;;;;;;1.02;0.80;;;19.10;61.80;;;;;;5050901;28;20021;-67
2022/01/01 09:25:57;;;;;;;1.02;0.70;;;19.10;61.70;;;;;;5026246;28;20053;-67
2022/01/01 09:28:23;;;;;;;0.82;0.80;;;19.10;61.80;;;;;;5032286;28;20037;-67
2022/01/01 09:30:48;;;;;;;0.90;0.80;;;19.10;61.70;;;;;;5014771;28;20021;-67
2022/01/01 09:33:14;;;;;;;1.02;0.68;;;19.10;61.70;;;;;;5031148;28;20041;-67
2022/01/01 09:35:40;;;;;;;0.82;0.80;;;19.10;61.70;;;;;;5032249;28;20033;-67
2022/01/01 09:38:06;;;;;;;0.95;0.80;;;19.10;61.70;;;;;;5031065;28;20450;-67
2022/01/01 09:40:32;;;;;;;1.15;0.80;;;19.10;61.70;;;;;;5032197;28;20025;-67
2022/01/01 09:42:58;;;;;;;0.60;0.60;;;19.10;61.70;;;;;;5034520;28;20033;-67
2022/01/01 09:45:23;;;;;;;0.95;0.82;;;19.10;61.70;;;;;;5035069;28;20021;-67
2022/01/01 09:47:49;;;;;;;1.17;0.75;;;19.10;61.70;;;;;;5035414;28;20468;-67
2022/01/01 09:50:15;;;;;;;1.25;0.77;;;19.10;61.70;;;;;;5045136;28;20025;-67
2022/01/01 09:52:40;;;;;;;1.20;0.90;;;19.10;61.70;;;;;;5055800;28;20494;-67
2022/01/01 09:55:06;;;;;;;0.75;0.57;;;19.00;61.60;;;;;;5021795;28;20502;-67
2022/01/01 09:57:32;;;;;;;0.73;0.70;;;19.10;61.70;;;;;;5056189;28;20645;-67
2022/01/01 09:59:58;;;;;;;1.00;0.90;;;19.10;61.70;;;;;;5056039;28;20103;-67
2022/01/01 10:02:23;;;;;;;1.42;0.63;;;19.10;61.70;;;;;;5054792;28;20047;-67
2022/01/01 10:04:51;;;;;;;0.88;0.68;;;19.00;61.70;;;;;;5055981;28;20067;-67
2022/01/01 10:07:17;;;;;;;1.25;0.60;;;19.00;61.70;;;;;;5038054;28;20044;-67
2022/01/01 10:09:43;;;;;;;0.85;0.57;;;19.00;61.60;;;;;;5054728;28;20973;-67
2022/01/01 10:12:10;;;;;;;0.60;0.60;;;19.10;61.70;;;;;;5054700;28;20096;-67
2022/01/01 10:14:39;;;;;;;0.80;0.60;;;19.10;61.70;;;;;;5055923;28;20021;-67
2022/01/01 10:17:24;;;;;;;0.60;0.60;;;19.00;61.70;;;;;;5054512;28;20037;-67
2022/01/01 10:19:51;;;;;;;1.00;0.70;;;19.10;61.70;;;;;;5054696;28;20032;-67
2022/01/01 10:22:21;;;;;;;0.88;0.80;;;19.00;61.70;;;;;;5037734;28;20063;-67
2022/01/01 10:27:42;;;;;;;0.98;0.93;;;19.10;61.70;;;;;;5034569;28;20071;-67
2022/01/01 10:30:09;;;;;;;1.50;0.90;;;19.00;61.70;;;;;;5034605;28;20021;-67
2022/01/01 10:32:35;;;;;;;1.02;0.75;;;19.00;61.70;;;;;;5034402;28;20100;-67
2022/01/01 10:35:01;;;;;;;1.08;0.85;;;19.00;61.70;;;;;;5017680;28;20108;-67
2022/01/01 10:37:28;;;;;;;0.75;0.73;;;19.00;61.70;;;;;;5017892;28;20125;-67
2022/01/01 10:39:54;;;;;;;1.20;0.70;;;19.10;61.70;;;;;;5034149;28;20033;-67
2022/01/01 10:42:20;;;;;;;0.82;0.70;;;19.00;61.70;;;;;;5017810;28;20512;-67
2022/01/01 10:44:47;;;;;;;0.80;0.60;;;19.10;61.70;;;;;;5034180;28;20030;-67
2022/01/01 10:47:20;;;;;;;1.20;0.82;;;19.00;61.60;;;;;;5017740;28;20140;-67
2022/01/01 10:52:18;;;;;;;0.95;0.63;;;19.10;61.70;;;;;;5053949;28;20116;-67
2022/01/01 10:55:03;;;;;;;0.70;0.70;;;19.10;61.70;;;;;;5054595;28;20482;-67
2022/01/01 10:57:33;;;;;;;0.77;0.70;;;19.10;61.70;;;;;;5053940;28;20013;-67
2022/01/01 11:00:08;;;;;;;1.08;0.70;;;19.10;61.70;;;;;;5054828;28;20491;-67
2022/01/01 11:02:35;;;;;;;0.95;0.85;;;19.10;61.60;;;;;;5054840;28;20056;-67
2022/01/01 11:05:00;;;;;;;1.33;0.73;;;19.00;61.70;;;;;;5036893;28;20049;-67
2022/01/01 11:07:27;;;;;;;0.80;0.70;;;19.00;61.70;;;;;;5037173;28;20495;-67
2022/01/01 11:09:53;;;;;;;0.77;0.60;;;19.10;61.70;;;;;;5053989;28;20067;-67
2022/01/01 11:12:21;;;;;;;1.77;0.80;;;19.00;61.70;;;;;;5037001;28;20017;-67
2022/01/01 11:14:46;;;;;;;1.77;1.00;;;19.10;61.70;;;;;;5053473;28;20028;-67
2022/01/01 11:17:12;;;;;;;0.70;0.70;;;19.10;61.70;;;;;;5053385;28;20086;-67
2022/01/01 11:19:38;;;;;;;1.02;0.82;;;19.10;61.70;;;;;;5053152;28;20040;-67
2022/01/01 11:22:03;;;;;;;0.70;0.70;;;19.10;61.70;;;;;;5053412;28;20025;-67
2022/01/01 11:24:30;;;;;;;1.38;0.90;;;19.10;61.70;;;;;;5053138;28;20032;-67
2022/01/01 11:26:56;;;;;;;1.27;0.70;;;19.10;61.70;;;;;;5020803;28;20029;-67
2022/01/01 11:29:22;;;;;;;0.85;0.85;;;19.00;61.60;;;;;;5033134;28;20392;-67
2022/01/01 11:31:47;;;;;;;1.38;0.90;;;19.10;61.70;;;;;;5033171;28;20013;-67
2022/01/01 11:34:14;;;;;;;1.02;0.80;;;19.10;61.70;;;;;;5032900;28;20017;-67
2022/01/01 11:36:40;;;;;;;0.77;0.60;;;19.10;61.70;;;;;;5033181;28;20021;-67
2022/01/01 11:39:06;;;;;;;1.60;1.00;;;19.10;61.70;;;;;;5033099;28;20308;-67
2022/01/01 11:41:39;;;;;;;1.58;0.80;;;19.00;61.60;;;;;;5034271;28;20491;-67
2022/01/01 11:44:24;;;;;;;1.33;1.00;;;19.10;61.60;;;;;;5033130;28;20497;-67
2022/01/01 11:47:04;;;;;;;0.95;0.80;;;19.10;61.70;;;;;;5033382;28;20025;-67
2022/01/01 11:49:30;;;;;;;1.15;1.05;;;19.10;61.70;;;;;;5036765;28;20079;-67
2022/01/01 11:51:56;;;;;;;1.27;0.70;;;19.10;61.70;;;;;;5052574;28;20386;-67
2022/01/01 11:54:35;;;;;;;0.98;0.80;;;19.10;61.70;;;;;;5052940;28;20025;-67
2022/01/01 11:57:15;;;;;;;0.80;0.70;;;19.10;61.70;;;;;;5054130;28;20031;-67
2022/01/01 11:59:51;;;;;;;2.08;0.75;;;19.10;61.60;;;;;;5052690;28;20028;-67
2022/01/01 12:02:20;;;;;;;1.00;0.70;;;19.00;61.70;;;;;;5052464;28;20071;-67
2022/01/01 12:04:50;;;;;;;1.27;0.90;;;19.00;61.70;;;;;;5053086;28;20491;-67
2022/01/01 12:07:16;;;;;;;2.28;0.80;;;19.10;61.70;;;;;;5035582;28;20096;-67
2022/01/01 12:10:06;;;;;;;1.17;0.73;;;19.10;61.70;;;;;;5053711;28;20100;-67
2022/01/01 12:12:38;;;;;;;0.93;0.80;;;19.10;61.70;;;;;;5053527;28;20021;-67
2022/01/01 12:15:06;;;;;;;1.23;0.90;;;19.10;61.70;;;;;;5053618;28;20035;-67
2022/01/01 12:17:44;;;;;;;1.08;0.80;;;19.00;61.70;;;;;;5035751;28;20090;-67
2022/01/01 12:20:14;;;;;;;0.95;0.90;;;19.10;61.60;;;;;;5053761;28;20025;-67
2022/01/01 12:22:39;;;;;;;0.70;0.65;;;19.10;61.70;;;;;;5035688;28;20036;-67
2022/01/01 12:25:07;;;;;;;1.50;0.80;;;19.00;61.70;;;;;;5034504;28;20049;-67
2022/01/01 12:27:41;;;;;;;1.27;0.90;;;19.10;61.70;;;;;;5033401;28;20030;-67
2022/01/01 12:30:07;;;;;;;1.83;1.00;;;19.10;61.70;;;;;;5032231;28;20063;-67
2022/01/01 12:32:37;;;;;;;1.33;0.70;;;19.10;61.70;;;;;;5031770;28;20025;-67
2022/01/01 12:35:07;;;;;;;0.75;0.70;;;19.10;61.70;;;;;;5032097;28;20553;-67
2022/01/01 12:37:36;;;;;;;0.80;0.80;;;19.10;61.70;;;;;;5032014;28;20053;-67
2022/01/01 12:40:04;;;;;;;0.80;0.80;;;19.10;61.70;;;;;;5033135;28;20083;-67
2022/01/01 12:42:32;;;;;;;1.45;0.80;;;19.10;61.70;;;;;;5031918;28;20112;-67
2022/01/01 12:44:59;;;;;;;1.35;0.90;;;19.10;61.70;;;;;;5032808;28;20037;-67
2022/01/01 12:47:28;;;;;;;1.38;0.75;;;19.10;61.70;;;;;;5032940;28;20240;-67
2022/01/01 12:50:00;;;;;;;1.15;1.05;;;19.10;61.70;;;;;;5038694;28;20070;-67
2022/01/01 12:52:27;;;;;;;1.55;0.82;;;19.10;61.70;;;;;;5051669;28;20017;-67
2022/01/01 12:54:58;;;;;;;1.45;0.98;;;19.10;61.70;;;;;;5035203;28;20494;-67